Latest Weather Observations for Esperance

IDW60801

Issued at 7:52 pm WST Thursday 25 April 2024 (issued every 10 minutes, with the page automatically refreshed every 10 minutes)

About weather observations | Map of weather stations | Latest weather observations for WA | Other Formats
Station Details ID: 009789 Name: ESPERANCE Lat: -33.83 Lon: 121.89 Height: 25.0 m
Data from the previous 72 hours. | See also: Recent months at Esperance
Date/Time
WST
Temp
°C
App
Temp
°C
Dew
Point
°C
Rel
Hum
%
Delta-T
°C
Wind Press
QNH
hPa
Press
MSL
hPa
Rain since
9am
mm
Dir  Spd
km/h
Gust
km/h
Spd
kts
Gust
kts
25/07:30pm 15.1 12.0 11.7 80 1.8 E 19 30 10 16 1028.4 1028.3 0.0
25/07:00pm 15.4 12.9 12.2 81 1.7 E 17 24 9 13 1028.5 1028.4 0.0
25/06:30pm 15.7 12.2 12.3 80 1.9 ESE 22 33 12 18 1028.6 1028.5 0.0
25/06:00pm 15.9 12.8 12.1 78 2.1 ESE 20 33 11 18 1028.6 1028.5 0.0
25/05:30pm 15.5 12.6 12.8 84 1.5 ESE 20 30 11 16 1028.5 1028.4 0.0
25/05:00pm 16.0 11.7 12.2 78 2.1 ESE 26 41 14 22 1028.2 1028.1 0.0
25/04:30pm 16.8 12.8 11.9 73 2.7 ESE 24 37 13 20 1028.3 1028.2 0.0
25/04:00pm 17.0 12.7 11.9 72 2.8 ESE 26 39 14 21 1028.3 1028.2 0.0
25/03:30pm 16.8 12.3 11.5 71 2.9 ESE 26 37 14 20 1028.4 1028.3 0.0
25/03:00pm 17.4 13.4 11.7 69 3.1 ESE 24 35 13 19 1028.5 1028.4 0.0
25/02:30pm 18.2 15.4 10.1 59 4.3 E 15 24 8 13 1028.7 1028.6 0.0
25/02:00pm 18.9 16.0 9.7 55 4.8 E 15 24 8 13 1028.8 1028.7 0.0
25/01:30pm 19.5 17.4 11.0 58 4.6 E 13 22 7 12 1028.9 1028.8 0.0
25/01:00pm 18.0 15.5 11.1 64 3.7 NE 15 26 8 14 1029.5 1029.4 0.0
25/12:30pm 17.0 14.6 11.5 70 3.0 SE 15 20 8 11 1029.8 1029.7 0.0
25/12:00pm 17.5 15.4 11.1 66 3.4 SE 13 20 7 11 1030.3 1030.2 0.0
25/11:39am 17.2 16.1 12.1 72 2.8 ESE 9 13 5 7 1031.0 1030.9 0.0
25/11:30am 16.0 14.6 12.2 78 2.1 ESE 11 17 6 9 1031.3 1031.2 0.0
25/11:22am 15.7 13.5 12.1 79 2.0 NE 15 22 8 12 1031.5 1031.4 0.0
25/11:00am 17.1 14.4 10.2 64 3.6 ESE 15 22 8 12 1031.6 1031.5 0.0
25/10:30am 18.0 15.6 10.1 60 4.2 ENE 13 20 7 11 1032.0 1031.9 0.0
25/10:00am 17.1 13.9 10.0 63 3.7 ENE 17 24 9 13 1032.4 1032.3 0.0
25/09:30am 16.7 14.3 9.9 64 3.6 NE 13 19 7 10 1032.8 1032.7 0.0
25/09:00am 15.5 13.8 9.8 69 2.9 N 9 13 5 7 1033.1 1033.0 0.0
25/08:30am 14.7 13.3 9.7 72 2.6 N 7 9 4 5 1032.9 1032.8 0.0
25/08:00am 13.5 12.1 9.4 76 2.1 NNE 7 11 4 6 1032.9 1032.8 0.0
25/07:30am 12.6 11.3 9.2 80 1.7 ESE 6 7 3 4 1032.7 1032.6 0.0
25/07:00am 12.1 10.5 8.9 81 1.6 NNE 7 11 4 6 1032.5 1032.4 0.0
25/06:30am 12.0 10.0 8.8 81 1.6 N 9 11 5 6 1032.2 1032.1 0.0
25/06:00am 12.0 10.4 8.8 81 1.6 N 7 7 4 4 1032.0 1031.9 0.0
25/05:30am 12.2 10.7 9.0 81 1.6 N 7 9 4 5 1031.9 1031.8 0.0
25/05:00am 12.5 11.1 8.8 78 1.8 SE 6 7 3 4 1031.8 1031.7 0.0
25/04:30am 12.5 11.1 8.8 78 1.9 E 6 7 3 4 1031.9 1031.8 0.0
25/04:00am 12.4 10.8 8.9 79 1.7 N 7 11 4 6 1031.7 1031.6 0.0
25/03:30am 12.3 12.0 8.8 79 1.7 CALM 0 0 0 0 1031.9 1031.8 0.0
25/03:00am 12.3 10.7 8.8 79 1.7 N 7 9 4 5 1031.9 1031.8 0.0
25/02:30am 12.5 11.0 8.6 77 1.9 ENE 6 7 3 4 1032.0 1031.9 0.0
25/02:00am 12.5 10.9 8.6 77 1.9 E 7 9 4 5 1032.2 1032.1 0.0
25/01:30am 12.7 11.1 8.6 76 2.0 E 7 9 4 5 1032.3 1032.2 0.0
25/01:00am 12.8 11.2 8.7 76 2.0 NE 7 9 4 5 1032.5 1032.4 0.0
25/12:30am 12.9 10.9 8.6 75 2.1 NE 9 11 5 6 1032.3 1032.2 0.0
25/12:00am 13.3 11.3 8.6 73 2.3 ENE 9 13 5 7 1032.4 1032.3 0.0
 
Date/Time
WST
Temp
°C
App
Temp
°C
Dew
Point
°C
Rel
Hum
%
Delta-T
°C
Wind Press
QNH
hPa
Press
MSL
hPa
Rain since
9am
mm
Dir  Spd
km/h
Gust
km/h
Spd
kts
Gust
kts
24/11:30pm 13.6 11.6 8.7 72 2.5 ESE 9 13 5 7 1032.3 1032.2 0.0
24/11:00pm 14.0 11.6 8.6 70 2.7 NE 11 17 6 9 1032.1 1032.0 0.0
24/10:30pm 14.2 11.4 8.6 69 2.8 ENE 13 20 7 11 1032.2 1032.1 0.0
24/10:00pm 14.4 11.6 8.6 68 2.9 E 13 19 7 10 1032.4 1032.3 0.0
24/09:30pm 14.7 12.0 8.9 68 3.0 E 13 17 7 9 1032.5 1032.4 0.0
24/09:00pm 15.0 12.3 8.9 67 3.1 E 13 20 7 11 1032.6 1032.5 0.0
24/08:30pm 15.4 12.4 9.3 67 3.1 E 15 20 8 11 1032.5 1032.4 0.0
24/08:00pm 15.8 12.0 9.2 65 3.4 E 19 26 10 14 1032.4 1032.3 0.0
24/07:30pm 15.9 11.6 9.3 65 3.4 ESE 22 30 12 16 1032.3 1032.2 0.0
24/07:00pm 16.0 12.0 9.0 63 3.6 ESE 20 30 11 16 1032.1 1032.0 0.0
24/06:30pm 16.1 12.2 9.3 64 3.5 ESE 20 30 11 16 1032.0 1031.9 0.0
24/06:00pm 16.2 11.6 9.6 65 3.4 ESE 24 33 13 18 1031.8 1031.7 0.0
24/05:30pm 16.4 11.5 8.4 59 4.1 ESE 24 33 13 18 1031.5 1031.4 0.0
24/05:00pm 16.5 11.7 7.4 55 4.5 ESE 22 32 12 17 1031.4 1031.3 0.0
24/04:30pm 16.7 11.7 8.1 57 4.4 ESE 24 35 13 19 1031.3 1031.2 0.0
24/04:00pm 16.8 12.0 8.8 59 4.1 ESE 24 32 13 17 1031.4 1031.3 0.0
24/03:30pm 16.8 12.2 8.2 57 4.4 ESE 22 30 12 16 1031.5 1031.4 0.0
24/03:00pm 16.9 11.6 8.6 58 4.2 ESE 26 35 14 19 1031.6 1031.5 0.0
24/02:30pm 17.0 12.7 9.2 60 4.1 SE 22 30 12 16 1031.6 1031.5 0.0
24/02:00pm 16.8 11.6 8.8 59 4.1 ESE 26 35 14 19 1031.6 1031.5 0.0
24/01:30pm 17.7 12.8 8.6 55 4.7 ESE 24 35 13 19 1031.6 1031.5 0.0
24/01:00pm 17.3 12.8 6.8 50 5.2 ESE 20 28 11 15 1031.8 1031.7 0.0
24/12:30pm 16.9 13.0 9.6 62 3.8 SE 20 28 11 15 1032.2 1032.1 0.0
24/12:00pm 17.2 13.6 8.4 56 4.5 SE 17 26 9 14 1032.8 1032.7 0.0
24/11:30am 17.2 13.0 7.3 52 5.0 ESE 19 24 10 13 1033.3 1033.2 0.0
24/11:00am 17.5 14.0 7.3 51 5.1 ESE 15 20 8 11 1033.8 1033.7 0.0
24/10:30am 16.3 12.9 7.5 56 4.4 E 15 24 8 13 1034.2 1034.1 0.0
24/10:00am 16.5 13.2 8.0 57 4.3 ESE 15 20 8 11 1034.1 1034.0 0.0
24/09:30am 16.5 13.2 8.0 57 4.3 E 15 20 8 11 1034.4 1034.3 0.0
24/09:00am 16.3 12.8 7.3 55 4.4 E 15 20 8 11 1034.4 1034.3 0.0
24/08:30am 15.5 13.6 7.5 59 4.0 ENE 7 11 4 6 1034.4 1034.3 0.0
24/08:00am 15.0 14.0 7.5 61 3.7 NE 2 7 1 4 1034.1 1034.0 0.0
24/07:30am 14.2 13.6 7.3 63 3.4 CALM 0 0 0 0 1033.8 1033.7 0.0
24/07:00am 13.5 12.9 7.3 66 3.0 CALM 0 4 0 2 1033.7 1033.6 0.0
24/06:30am 13.8 12.5 7.6 66 3.1 E 4 7 2 4 1033.2 1033.1 0.0
24/06:00am 14.0 12.1 6.8 62 3.5 E 6 7 3 4 1033.1 1033.0 0.0
24/05:30am 14.0 12.0 7.3 64 3.3 E 7 9 4 5 1033.1 1033.0 0.0
24/05:00am 13.5 12.1 8.8 73 2.3 S 6 7 3 4 1032.9 1032.8 0.0
24/04:30am 13.8 13.0 8.2 69 2.8 SSW 2 6 1 3 1032.8 1032.7 0.0
24/04:00am 13.6 12.4 8.2 70 2.7 SSW 4 6 2 3 1032.8 1032.7 0.0
24/03:30am 13.3 11.8 8.6 73 2.4 W 6 7 3 4 1032.5 1032.4 0.0
24/03:00am 13.5 12.1 8.8 73 2.3 NW 6 7 3 4 1032.7 1032.6 0.0
24/02:30am 13.2 11.8 8.9 75 2.2 N 6 7 3 4 1032.7 1032.6 0.0
24/02:00am 13.5 13.3 9.0 74 2.3 CALM 0 0 0 0 1032.7 1032.6 0.0
24/01:30am 13.5 12.0 9.2 75 2.2 NNE 7 7 4 4 1032.9 1032.8 0.0
24/01:00am 13.8 12.2 8.6 71 2.6 ENE 7 11 4 6 1033.0 1032.9 0.0
24/12:30am 13.4 11.5 8.9 74 2.3 NE 9 13 5 7 1033.3 1033.2 0.0
24/12:00am 13.7 12.2 8.5 71 2.6 NE 6 7 3 4 1033.0 1032.9 0.0
 
Date/Time
WST
Temp
°C
App
Temp
°C
Dew
Point
°C
Rel
Hum
%
Delta-T
°C
Wind Press
QNH
hPa
Press
MSL
hPa
Rain since
9am
mm
Dir  Spd
km/h
Gust
km/h
Spd
kts
Gust
kts
23/11:30pm 13.6 11.3 9.1 74 2.3 NE 11 15 6 8 1033.0 1032.9 0.0
23/11:00pm 13.9 12.1 8.1 68 2.9 ENE 7 9 4 5 1033.0 1032.9 0.0
23/10:30pm 13.9 12.3 8.1 68 2.9 NE 6 9 3 5 1033.1 1033.0 0.0
23/10:00pm 14.2 11.6 7.7 65 3.2 NE 11 13 6 7 1033.5 1033.4 0.0
23/09:30pm 14.4 12.5 7.7 64 3.3 ENE 7 13 4 7 1033.2 1033.1 0.0
23/09:00pm 14.9 12.0 8.2 64 3.3 E 13 20 7 11 1033.0 1032.9 0.0
23/08:30pm 15.0 12.5 8.3 64 3.4 ESE 11 17 6 9 1033.0 1032.9 0.0
23/08:00pm 14.5 10.5 8.2 66 3.1 E 19 30 10 16 1032.9 1032.8 0.0
23/07:30pm 15.8 11.8 6.8 55 4.4 SE 17 26 9 14 1032.8 1032.7 0.0
23/07:00pm 15.8 11.2 6.3 53 4.6 ESE 20 28 11 15 1032.4 1032.3 0.0
23/06:30pm 15.7 11.3 4.7 48 5.2 ESE 17 24 9 13 1032.4 1032.3 0.0
23/06:00pm 15.8 11.5 5.4 50 4.9 ESE 17 24 9 13 1032.1 1032.0 0.0
23/05:30pm 15.8 10.8 4.5 47 5.3 ESE 20 32 11 17 1031.8 1031.7 0.0
23/05:00pm 15.8 10.8 4.5 47 5.2 SE 20 28 11 15 1031.7 1031.6 0.0
23/04:30pm 16.5 10.9 5.5 48 5.3 SE 24 33 13 18 1031.5 1031.4 0.0
23/04:00pm 16.2 10.4 6.3 52 4.8 SE 26 33 14 18 1031.4 1031.3 0.0
23/03:30pm 16.8 11.5 6.6 51 5.0 SSE 24 32 13 17 1031.4 1031.3 0.0
23/03:00pm 16.9 11.3 7.3 53 4.8 SSE 26 33 14 18 1031.2 1031.1 0.0
23/02:30pm 17.4 11.7 4.7 43 6.0 SSE 24 32 13 17 1031.2 1031.1 0.0
23/02:00pm 17.6 11.9 4.9 43 6.0 SSE 24 30 13 16 1031.2 1031.1 0.0
23/01:30pm 17.8 12.6 5.7 45 5.9 SSE 22 32 12 17 1031.1 1031.0 0.0
23/01:00pm 17.4 12.0 4.7 43 6.0 SSE 22 28 12 15 1031.5 1031.4 0.0
23/12:30pm 17.1 11.5 5.4 46 5.6 SE 24 30 13 16 1032.0 1031.9 0.0
23/12:00pm 17.0 11.4 5.6 47 5.5 SSE 24 33 13 18 1032.5 1032.4 0.0
23/11:30am 17.6 12.3 6.8 49 5.4 SE 24 35 13 19 1032.5 1032.4 0.0
23/11:00am 17.8 12.3 5.7 45 5.8 SE 24 32 13 17 1032.7 1032.6 0.0
23/10:30am 17.3 12.1 5.3 45 5.8 SSE 22 30 12 16 1032.6 1032.5 0.0
23/10:00am 17.4 11.9 6.0 47 5.5 SSE 24 30 13 16 1032.5 1032.4 0.0
23/09:30am 17.1 11.3 6.3 49 5.3 SSE 26 33 14 18 1032.3 1032.2 0.0
23/09:00am 16.9 12.1 7.3 53 4.8 SSE 22 32 12 17 1032.4 1032.3 1.4
23/08:30am 16.6 10.5 6.7 52 4.9 SSE 28 37 15 20 1032.3 1032.2 1.4
23/08:00am 16.0 10.9 5.9 51 4.8 SSE 22 35 12 19 1032.0 1031.9 1.4
23/07:30am 15.6 10.6 6.6 55 4.4 SSE 22 32 12 17 1031.6 1031.5 1.4
23/07:00am 15.2 10.1 7.7 61 3.7 S 24 32 13 17 1031.2 1031.1 1.4
23/06:30am 15.0 10.6 7.3 60 3.8 S 20 28 11 15 1030.7 1030.6 1.4
23/06:00am 14.9 10.4 7.0 59 3.8 SSE 20 28 11 15 1030.4 1030.3 1.4
23/05:30am 15.1 10.4 7.6 61 3.7 SSE 22 32 12 17 1030.2 1030.1 1.4
23/05:00am 15.0 10.4 6.3 56 4.2 SSE 20 28 11 15 1029.9 1029.8 1.4
23/04:30am 15.1 10.9 7.6 61 3.7 SSE 19 26 10 14 1029.7 1029.6 1.4
23/04:00am 14.9 10.6 7.9 63 3.5 S 20 28 11 15 1029.3 1029.2 1.4
23/03:30am 15.0 10.9 7.8 62 3.6 S 19 26 10 14 1029.1 1029.0 1.4
23/03:00am 15.2 10.8 6.7 57 4.1 SSE 19 28 10 15 1028.9 1028.8 1.4
23/02:30am 15.1 10.0 7.6 61 3.7 SSE 24 35 13 19 1028.8 1028.7 1.4
23/02:00am 15.3 10.4 7.1 58 4.0 S 22 32 12 17 1028.7 1028.6 1.4
23/01:30am 15.2 10.4 7.3 59 3.9 S 22 32 12 17 1028.7 1028.6 1.4
23/01:00am 15.2 10.4 7.3 59 3.9 S 22 35 12 19 1028.7 1028.6 1.4
23/12:30am 15.4 11.3 7.9 61 3.8 S 19 24 10 13 1028.6 1028.5 1.4
23/12:00am 14.1 11.7 8.5 69 2.8 S 11 15 6 8 1028.7 1028.6 1.4
 
Date/Time
WST
Temp
°C
App
Temp
°C
Dew
Point
°C
Rel
Hum
%
Delta-T
°C
Wind Press
QNH
hPa
Press
MSL
hPa
Rain since
9am
mm
Dir  Spd
km/h
Gust
km/h
Spd
kts
Gust
kts
22/11:30pm 14.5 10.0 8.7 68 2.9 S 22 35 12 19 1028.6 1028.5 1.4
22/11:00pm 15.7 11.7 8.4 62 3.7 S 19 28 10 15 1028.2 1028.1 1.4
22/10:30pm 15.5 11.1 7.3 58 4.1 S 20 30 11 16 1028.3 1028.2 1.4
22/10:00pm 15.5 10.3 7.3 58 4.0 S 24 33 13 18 1028.3 1028.2 1.4
22/09:30pm 15.6 11.1 6.3 54 4.5 S 19 28 10 15 1028.4 1028.3 1.4
22/09:00pm 15.6 10.6 6.3 54 4.5 S 22 30 12 16 1028.3 1028.2 1.4
22/08:30pm 15.9 10.7 7.4 57 4.2 S 24 33 13 18 1027.8 1027.7 1.4
22/08:00pm 15.7 10.9 7.5 58 4.1 S 22 35 12 19 1027.7 1027.6 1.4

Other formats

Comma delimited format used in spreadsheet applications
http://www.bom.gov.au/fwo/IDW60801/IDW60801.94638.axf

JavaScript Object Notation format (JSON) in row-major order
http://www.bom.gov.au/fwo/IDW60801/IDW60801.94638.json

Data quality

Most of these data are generated automatically and are frequently updated. Quality checks on data are not normally performed. It is possible for incorrect values to appear. Refer to information at About Latest Weather Observations and please check the disclaimer before using these data.